sensor_id;sensor_type;location;lat;lon;timestamp;P1;durP1;ratioP1;P2;durP2;ratioP2
64684;SDS011;51109;47.414;18.954;2023-07-29T00:00:43;3.63;;;2.65;;
64684;SDS011;51109;47.414;18.954;2023-07-29T00:03:09;6.78;;;2.78;;
64684;SDS011;51109;47.414;18.954;2023-07-29T00:05:37;3.25;;;2.65;;
64684;SDS011;51109;47.414;18.954;2023-07-29T00:08:03;3.38;;;2.97;;
64684;SDS011;51109;47.414;18.954;2023-07-29T00:10:31;3.38;;;2.88;;
64684;SDS011;51109;47.414;18.954;2023-07-29T00:12:57;5.05;;;2.75;;
64684;SDS011;51109;47.414;18.954;2023-07-29T00:15:24;2.75;;;2.25;;
64684;SDS011;51109;47.414;18.954;2023-07-29T00:17:50;3.55;;;2.60;;
64684;SDS011;51109;47.414;18.954;2023-07-29T00:20:16;2.83;;;2.50;;
64684;SDS011;51109;47.414;18.954;2023-07-29T00:22:41;3.58;;;2.65;;
64684;SDS011;51109;47.414;18.954;2023-07-29T00:25:07;3.13;;;2.60;;
64684;SDS011;51109;47.414;18.954;2023-07-29T00:27:33;3.33;;;2.30;;
64684;SDS011;51109;47.414;18.954;2023-07-29T00:29:59;3.88;;;2.83;;
64684;SDS011;51109;47.414;18.954;2023-07-29T00:32:27;2.55;;;2.28;;
64684;SDS011;51109;47.414;18.954;2023-07-29T00:34:54;3.47;;;2.80;;
64684;SDS011;51109;47.414;18.954;2023-07-29T00:37:21;4.00;;;2.30;;
64684;SDS011;51109;47.414;18.954;2023-07-29T00:39:47;3.75;;;2.63;;
64684;SDS011;51109;47.414;18.954;2023-07-29T00:42:13;4.10;;;2.60;;
64684;SDS011;51109;47.414;18.954;2023-07-29T00:44:38;3.47;;;2.58;;
64684;SDS011;51109;47.414;18.954;2023-07-29T00:47:04;4.60;;;2.65;;
64684;SDS011;51109;47.414;18.954;2023-07-29T00:49:32;2.78;;;2.35;;
64684;SDS011;51109;47.414;18.954;2023-07-29T00:51:58;5.75;;;3.47;;
64684;SDS011;51109;47.414;18.954;2023-07-29T00:54:24;2.70;;;2.50;;
64684;SDS011;51109;47.414;18.954;2023-07-29T00:56:50;3.17;;;2.35;;
64684;SDS011;51109;47.414;18.954;2023-07-29T00:59:16;6.63;;;2.80;;
64684;SDS011;51109;47.414;18.954;2023-07-29T01:01:42;5.05;;;2.95;;
64684;SDS011;51109;47.414;18.954;2023-07-29T01:04:08;7.45;;;3.55;;
64684;SDS011;51109;47.414;18.954;2023-07-29T01:06:39;5.22;;;2.97;;
64684;SDS011;51109;47.414;18.954;2023-07-29T01:12:03;4.82;;;2.38;;
64684;SDS011;51109;47.414;18.954;2023-07-29T01:14:51;3.50;;;2.40;;
64684;SDS011;51109;47.414;18.954;2023-07-29T01:17:46;3.33;;;2.83;;
64684;SDS011;51109;47.414;18.954;2023-07-29T01:20:40;4.15;;;2.45;;
64684;SDS011;51109;47.414;18.954;2023-07-29T01:23:07;3.90;;;2.63;;
64684;SDS011;51109;47.414;18.954;2023-07-29T01:25:33;3.50;;;2.53;;
64684;SDS011;51109;47.414;18.954;2023-07-29T01:27:58;2.78;;;2.47;;
64684;SDS011;51109;47.414;18.954;2023-07-29T01:30:29;2.70;;;2.35;;
64684;SDS011;51109;47.414;18.954;2023-07-29T01:32:59;2.40;;;2.20;;
64684;SDS011;51109;47.414;18.954;2023-07-29T01:35:42;2.47;;;2.28;;
64684;SDS011;51109;47.414;18.954;2023-07-29T01:40:46;2.75;;;2.22;;
64684;SDS011;51109;47.414;18.954;2023-07-29T01:43:14;3.10;;;2.63;;
64684;SDS011;51109;47.414;18.954;2023-07-29T01:45:40;3.42;;;2.60;;
64684;SDS011;51109;47.414;18.954;2023-07-29T01:48:07;3.55;;;2.47;;
64684;SDS011;51109;47.414;18.954;2023-07-29T01:50:33;4.05;;;2.83;;
64684;SDS011;51109;47.414;18.954;2023-07-29T01:52:59;5.22;;;3.35;;
64684;SDS011;51109;47.414;18.954;2023-07-29T01:55:26;3.83;;;3.10;;
64684;SDS011;51109;47.414;18.954;2023-07-29T01:57:51;4.53;;;2.72;;
64684;SDS011;51109;47.414;18.954;2023-07-29T02:00:18;3.65;;;2.90;;
64684;SDS011;51109;47.414;18.954;2023-07-29T02:02:44;3.28;;;2.90;;
64684;SDS011;51109;47.414;18.954;2023-07-29T02:05:10;3.70;;;2.83;;
64684;SDS011;51109;47.414;18.954;2023-07-29T02:07:36;6.50;;;2.53;;
64684;SDS011;51109;47.414;18.954;2023-07-29T02:10:02;3.28;;;2.38;;
64684;SDS011;51109;47.414;18.954;2023-07-29T02:12:28;3.05;;;2.60;;
64684;SDS011;51109;47.414;18.954;2023-07-29T02:14:54;3.08;;;2.50;;
64684;SDS011;51109;47.414;18.954;2023-07-29T02:17:20;2.50;;;2.30;;
64684;SDS011;51109;47.414;18.954;2023-07-29T02:19:46;2.60;;;2.40;;
64684;SDS011;51109;47.414;18.954;2023-07-29T02:22:16;4.30;;;2.60;;
64684;SDS011;51109;47.414;18.954;2023-07-29T02:24:43;4.78;;;2.40;;
64684;SDS011;51109;47.414;18.954;2023-07-29T02:27:09;4.07;;;2.42;;
64684;SDS011;51109;47.414;18.954;2023-07-29T02:29:35;3.65;;;2.67;;
64684;SDS011;51109;47.414;18.954;2023-07-29T02:32:02;3.83;;;2.80;;
64684;SDS011;51109;47.414;18.954;2023-07-29T02:34:28;4.15;;;2.75;;
64684;SDS011;51109;47.414;18.954;2023-07-29T02:36:54;3.85;;;2.83;;
64684;SDS011;51109;47.414;18.954;2023-07-29T02:39:20;3.92;;;2.90;;
64684;SDS011;51109;47.414;18.954;2023-07-29T02:41:47;3.17;;;2.60;;
64684;SDS011;51109;47.414;18.954;2023-07-29T02:44:13;4.10;;;3.03;;
64684;SDS011;51109;47.414;18.954;2023-07-29T02:46:38;4.07;;;3.13;;
64684;SDS011;51109;47.414;18.954;2023-07-29T02:49:04;2.60;;;2.40;;
64684;SDS011;51109;47.414;18.954;2023-07-29T02:51:30;3.20;;;2.78;;
64684;SDS011;51109;47.414;18.954;2023-07-29T02:53:56;5.38;;;2.55;;
64684;SDS011;51109;47.414;18.954;2023-07-29T02:56:22;3.53;;;2.65;;
64684;SDS011;51109;47.414;18.954;2023-07-29T02:58:48;3.97;;;2.60;;
64684;SDS011;51109;47.414;18.954;2023-07-29T03:03:51;3.15;;;2.50;;
64684;SDS011;51109;47.414;18.954;2023-07-29T03:06:17;3.67;;;2.70;;
64684;SDS011;51109;47.414;18.954;2023-07-29T03:08:43;4.38;;;2.63;;
64684;SDS011;51109;47.414;18.954;2023-07-29T03:11:09;3.78;;;2.72;;
64684;SDS011;51109;47.414;18.954;2023-07-29T03:13:39;3.38;;;2.42;;
64684;SDS011;51109;47.414;18.954;2023-07-29T03:16:13;3.33;;;2.63;;
64684;SDS011;51109;47.414;18.954;2023-07-29T03:18:41;3.50;;;2.78;;
64684;SDS011;51109;47.414;18.954;2023-07-29T03:21:08;3.30;;;3.00;;
64684;SDS011;51109;47.414;18.954;2023-07-29T03:23:35;8.88;;;3.22;;
64684;SDS011;51109;47.414;18.954;2023-07-29T03:26:02;4.28;;;2.85;;
64684;SDS011;51109;47.414;18.954;2023-07-29T03:28:38;7.72;;;2.78;;
64684;SDS011;51109;47.414;18.954;2023-07-29T03:31:08;4.00;;;3.10;;
64684;SDS011;51109;47.414;18.954;2023-07-29T03:33:35;3.70;;;2.80;;
64684;SDS011;51109;47.414;18.954;2023-07-29T03:36:01;3.72;;;2.85;;
64684;SDS011;51109;47.414;18.954;2023-07-29T03:38:27;3.40;;;2.85;;
64684;SDS011;51109;47.414;18.954;2023-07-29T03:40:53;4.38;;;2.83;;
64684;SDS011;51109;47.414;18.954;2023-07-29T03:43:19;3.63;;;2.88;;
64684;SDS011;51109;47.414;18.954;2023-07-29T03:45:45;3.92;;;2.53;;
64684;SDS011;51109;47.414;18.954;2023-07-29T03:48:11;3.97;;;3.20;;
64684;SDS011;51109;47.414;18.954;2023-07-29T03:50:37;3.33;;;3.03;;
64684;SDS011;51109;47.414;18.954;2023-07-29T03:53:03;3.72;;;3.08;;
64684;SDS011;51109;47.414;18.954;2023-07-29T03:55:29;3.30;;;2.58;;
64684;SDS011;51109;47.414;18.954;2023-07-29T03:57:56;2.97;;;2.40;;
64684;SDS011;51109;47.414;18.954;2023-07-29T04:00:23;3.13;;;2.83;;
64684;SDS011;51109;47.414;18.954;2023-07-29T04:02:49;3.10;;;2.75;;
64684;SDS011;51109;47.414;18.954;2023-07-29T04:05:16;4.68;;;3.00;;
64684;SDS011;51109;47.414;18.954;2023-07-29T04:07:42;5.07;;;3.15;;
64684;SDS011;51109;47.414;18.954;2023-07-29T04:10:08;5.05;;;3.35;;
64684;SDS011;51109;47.414;18.954;2023-07-29T04:12:34;5.85;;;3.20;;
64684;SDS011;51109;47.414;18.954;2023-07-29T04:15:00;6.18;;;3.00;;
64684;SDS011;51109;47.414;18.954;2023-07-29T04:17:26;3.65;;;2.95;;
64684;SDS011;51109;47.414;18.954;2023-07-29T04:19:52;4.03;;;3.13;;
64684;SDS011;51109;47.414;18.954;2023-07-29T04:22:18;3.88;;;2.90;;
64684;SDS011;51109;47.414;18.954;2023-07-29T04:24:44;3.47;;;2.90;;
64684;SDS011;51109;47.414;18.954;2023-07-29T04:27:10;3.00;;;2.70;;
64684;SDS011;51109;47.414;18.954;2023-07-29T04:29:36;6.13;;;3.22;;
64684;SDS011;51109;47.414;18.954;2023-07-29T04:32:02;3.50;;;2.92;;
64684;SDS011;51109;47.414;18.954;2023-07-29T04:34:28;4.47;;;3.15;;
64684;SDS011;51109;47.414;18.954;2023-07-29T04:36:55;4.78;;;3.95;;
64684;SDS011;51109;47.414;18.954;2023-07-29T04:39:21;3.60;;;3.10;;
64684;SDS011;51109;47.414;18.954;2023-07-29T04:41:47;7.82;;;5.95;;
64684;SDS011;51109;47.414;18.954;2023-07-29T04:44:13;7.97;;;6.35;;
64684;SDS011;51109;47.414;18.954;2023-07-29T04:46:39;7.03;;;6.30;;
64684;SDS011;51109;47.414;18.954;2023-07-29T04:49:05;7.97;;;6.65;;
64684;SDS011;51109;47.414;18.954;2023-07-29T04:51:31;5.53;;;4.57;;
64684;SDS011;51109;47.414;18.954;2023-07-29T04:53:57;4.88;;;4.38;;
64684;SDS011;51109;47.414;18.954;2023-07-29T04:56:23;5.38;;;3.78;;
64684;SDS011;51109;47.414;18.954;2023-07-29T04:58:50;5.53;;;4.30;;
64684;SDS011;51109;47.414;18.954;2023-07-29T05:01:15;6.95;;;4.57;;
64684;SDS011;51109;47.414;18.954;2023-07-29T05:03:41;6.53;;;3.90;;
64684;SDS011;51109;47.414;18.954;2023-07-29T05:06:07;6.43;;;3.20;;
64684;SDS011;51109;47.414;18.954;2023-07-29T05:08:33;5.05;;;3.47;;
64684;SDS011;51109;47.414;18.954;2023-07-29T05:11:00;7.35;;;3.63;;
64684;SDS011;51109;47.414;18.954;2023-07-29T05:13:25;4.45;;;2.88;;
64684;SDS011;51109;47.414;18.954;2023-07-29T05:15:51;6.50;;;4.82;;
64684;SDS011;51109;47.414;18.954;2023-07-29T05:18:18;8.52;;;5.72;;
64684;SDS011;51109;47.414;18.954;2023-07-29T05:20:44;7.20;;;4.70;;
64684;SDS011;51109;47.414;18.954;2023-07-29T05:23:10;5.95;;;3.78;;
64684;SDS011;51109;47.414;18.954;2023-07-29T05:25:36;3.60;;;2.85;;
64684;SDS011;51109;47.414;18.954;2023-07-29T05:28:02;4.55;;;3.75;;
64684;SDS011;51109;47.414;18.954;2023-07-29T05:30:28;3.83;;;3.13;;
64684;SDS011;51109;47.414;18.954;2023-07-29T05:32:57;3.55;;;2.92;;
64684;SDS011;51109;47.414;18.954;2023-07-29T05:35:24;6.07;;;3.17;;
64684;SDS011;51109;47.414;18.954;2023-07-29T05:37:50;4.95;;;2.92;;
64684;SDS011;51109;47.414;18.954;2023-07-29T05:40:16;3.17;;;2.83;;
64684;SDS011;51109;47.414;18.954;2023-07-29T05:42:42;3.53;;;2.88;;
64684;SDS011;51109;47.414;18.954;2023-07-29T05:45:10;3.13;;;2.70;;
64684;SDS011;51109;47.414;18.954;2023-07-29T05:47:37;3.20;;;2.90;;
64684;SDS011;51109;47.414;18.954;2023-07-29T05:50:03;2.65;;;2.45;;
64684;SDS011;51109;47.414;18.954;2023-07-29T05:52:30;4.47;;;2.08;;
64684;SDS011;51109;47.414;18.954;2023-07-29T05:54:57;2.60;;;2.40;;
64684;SDS011;51109;47.414;18.954;2023-07-29T05:57:22;3.67;;;2.30;;
64684;SDS011;51109;47.414;18.954;2023-07-29T05:59:48;3.05;;;2.60;;
64684;SDS011;51109;47.414;18.954;2023-07-29T06:02:15;3.03;;;2.53;;
64684;SDS011;51109;47.414;18.954;2023-07-29T06:04:41;2.90;;;2.60;;
64684;SDS011;51109;47.414;18.954;2023-07-29T06:07:07;3.47;;;2.83;;
64684;SDS011;51109;47.414;18.954;2023-07-29T06:09:33;3.00;;;2.67;;
64684;SDS011;51109;47.414;18.954;2023-07-29T06:11:59;5.00;;;2.70;;
64684;SDS011;51109;47.414;18.954;2023-07-29T06:14:25;5.75;;;2.53;;
64684;SDS011;51109;47.414;18.954;2023-07-29T06:16:51;3.80;;;2.33;;
64684;SDS011;51109;47.414;18.954;2023-07-29T06:19:18;2.78;;;2.33;;
64684;SDS011;51109;47.414;18.954;2023-07-29T06:21:45;3.00;;;2.75;;
64684;SDS011;51109;47.414;18.954;2023-07-29T06:24:11;3.08;;;2.78;;
64684;SDS011;51109;47.414;18.954;2023-07-29T06:26:38;2.45;;;2.25;;
64684;SDS011;51109;47.414;18.954;2023-07-29T06:29:04;3.42;;;2.47;;
64684;SDS011;51109;47.414;18.954;2023-07-29T06:31:30;3.70;;;2.55;;
64684;SDS011;51109;47.414;18.954;2023-07-29T06:33:58;4.20;;;2.60;;
64684;SDS011;51109;47.414;18.954;2023-07-29T06:36:24;3.22;;;2.70;;
64684;SDS011;51109;47.414;18.954;2023-07-29T06:38:50;3.58;;;2.70;;
64684;SDS011;51109;47.414;18.954;2023-07-29T06:41:16;7.72;;;2.72;;
64684;SDS011;51109;47.414;18.954;2023-07-29T06:43:42;2.88;;;2.67;;
64684;SDS011;51109;47.414;18.954;2023-07-29T06:46:08;2.60;;;2.25;;
64684;SDS011;51109;47.414;18.954;2023-07-29T06:48:34;2.35;;;2.15;;
64684;SDS011;51109;47.414;18.954;2023-07-29T06:50:59;2.17;;;1.98;;
64684;SDS011;51109;47.414;18.954;2023-07-29T06:53:27;3.20;;;2.65;;
64684;SDS011;51109;47.414;18.954;2023-07-29T06:55:53;2.50;;;2.30;;
64684;SDS011;51109;47.414;18.954;2023-07-29T06:58:20;2.65;;;2.42;;
64684;SDS011;51109;47.414;18.954;2023-07-29T07:00:46;2.45;;;2.25;;
64684;SDS011;51109;47.414;18.954;2023-07-29T07:03:12;2.20;;;2.00;;
64684;SDS011;51109;47.414;18.954;2023-07-29T07:05:38;4.15;;;2.50;;
64684;SDS011;51109;47.414;18.954;2023-07-29T07:08:04;2.58;;;2.13;;
64684;SDS011;51109;47.414;18.954;2023-07-29T07:10:30;3.13;;;2.70;;
64684;SDS011;51109;47.414;18.954;2023-07-29T07:12:56;2.65;;;2.45;;
64684;SDS011;51109;47.414;18.954;2023-07-29T07:15:22;4.18;;;2.53;;
64684;SDS011;51109;47.414;18.954;2023-07-29T07:17:48;2.20;;;2.00;;
64684;SDS011;51109;47.414;18.954;2023-07-29T07:20:14;2.88;;;2.60;;
64684;SDS011;51109;47.414;18.954;2023-07-29T07:22:40;2.70;;;2.50;;
64684;SDS011;51109;47.414;18.954;2023-07-29T07:25:06;2.30;;;2.10;;
64684;SDS011;51109;47.414;18.954;2023-07-29T07:27:33;3.13;;;2.42;;
64684;SDS011;51109;47.414;18.954;2023-07-29T07:29:59;2.72;;;2.53;;
64684;SDS011;51109;47.414;18.954;2023-07-29T07:32:25;3.25;;;2.33;;
64684;SDS011;51109;47.414;18.954;2023-07-29T07:34:51;2.83;;;2.50;;
64684;SDS011;51109;47.414;18.954;2023-07-29T07:37:17;3.00;;;2.40;;
64684;SDS011;51109;47.414;18.954;2023-07-29T07:39:43;2.45;;;2.25;;
64684;SDS011;51109;47.414;18.954;2023-07-29T07:42:09;2.63;;;2.33;;
64684;SDS011;51109;47.414;18.954;2023-07-29T07:44:35;2.40;;;2.13;;
64684;SDS011;51109;47.414;18.954;2023-07-29T07:47:01;2.33;;;1.98;;
64684;SDS011;51109;47.414;18.954;2023-07-29T07:49:27;3.47;;;2.47;;
64684;SDS011;51109;47.414;18.954;2023-07-29T07:51:53;3.55;;;2.60;;
64684;SDS011;51109;47.414;18.954;2023-07-29T07:54:19;3.15;;;2.58;;
64684;SDS011;51109;47.414;18.954;2023-07-29T07:56:45;2.42;;;2.22;;
64684;SDS011;51109;47.414;18.954;2023-07-29T07:59:11;3.67;;;2.35;;
64684;SDS011;51109;47.414;18.954;2023-07-29T08:01:40;2.83;;;2.20;;
64684;SDS011;51109;47.414;18.954;2023-07-29T08:04:06;2.55;;;2.03;;
64684;SDS011;51109;47.414;18.954;2023-07-29T08:06:32;4.88;;;2.15;;
64684;SDS011;51109;47.414;18.954;2023-07-29T08:08:59;2.53;;;2.30;;
64684;SDS011;51109;47.414;18.954;2023-07-29T08:11:25;3.13;;;2.60;;
64684;SDS011;51109;47.414;18.954;2023-07-29T08:13:51;2.85;;;2.00;;
64684;SDS011;51109;47.414;18.954;2023-07-29T08:16:17;3.15;;;2.60;;
64684;SDS011;51109;47.414;18.954;2023-07-29T08:18:43;2.05;;;1.80;;
64684;SDS011;51109;47.414;18.954;2023-07-29T08:21:09;2.38;;;2.17;;
64684;SDS011;51109;47.414;18.954;2023-07-29T08:23:35;2.60;;;2.05;;
64684;SDS011;51109;47.414;18.954;2023-07-29T08:26:03;4.88;;;2.17;;
64684;SDS011;51109;47.414;18.954;2023-07-29T08:28:31;3.35;;;1.95;;
64684;SDS011;51109;47.414;18.954;2023-07-29T08:30:59;1.92;;;1.70;;
64684;SDS011;51109;47.414;18.954;2023-07-29T08:33:26;1.90;;;1.48;;
64684;SDS011;51109;47.414;18.954;2023-07-29T08:35:52;1.80;;;1.60;;
64684;SDS011;51109;47.414;18.954;2023-07-29T08:38:18;2.13;;;1.90;;
64684;SDS011;51109;47.414;18.954;2023-07-29T08:40:46;3.08;;;1.83;;
64684;SDS011;51109;47.414;18.954;2023-07-29T08:43:18;2.03;;;1.80;;
64684;SDS011;51109;47.414;18.954;2023-07-29T08:45:46;2.40;;;1.88;;
64684;SDS011;51109;47.414;18.954;2023-07-29T08:48:12;1.83;;;1.73;;
64684;SDS011;51109;47.414;18.954;2023-07-29T08:50:43;2.08;;;1.67;;
64684;SDS011;51109;47.414;18.954;2023-07-29T08:53:10;1.73;;;1.63;;
64684;SDS011;51109;47.414;18.954;2023-07-29T08:55:37;1.58;;;1.48;;
64684;SDS011;51109;47.414;18.954;2023-07-29T08:58:04;1.60;;;1.50;;
64684;SDS011;51109;47.414;18.954;2023-07-29T09:00:30;3.45;;;1.92;;
64684;SDS011;51109;47.414;18.954;2023-07-29T09:02:56;1.92;;;1.73;;
64684;SDS011;51109;47.414;18.954;2023-07-29T09:05:27;4.43;;;1.70;;
64684;SDS011;51109;47.414;18.954;2023-07-29T09:07:53;1.60;;;1.50;;
64684;SDS011;51109;47.414;18.954;2023-07-29T09:10:21;2.05;;;1.45;;
64684;SDS011;51109;47.414;18.954;2023-07-29T09:12:48;1.70;;;1.60;;
64684;SDS011;51109;47.414;18.954;2023-07-29T09:15:25;1.50;;;1.40;;
64684;SDS011;51109;47.414;18.954;2023-07-29T09:17:53;2.72;;;1.77;;
64684;SDS011;51109;47.414;18.954;2023-07-29T09:20:27;1.95;;;1.83;;
64684;SDS011;51109;47.414;18.954;2023-07-29T09:22:54;4.75;;;1.80;;
64684;SDS011;51109;47.414;18.954;2023-07-29T09:25:26;2.92;;;1.50;;
64684;SDS011;51109;47.414;18.954;2023-07-29T09:27:58;2.28;;;1.95;;
64684;SDS011;51109;47.414;18.954;2023-07-29T09:30:25;1.70;;;1.58;;
64684;SDS011;51109;47.414;18.954;2023-07-29T09:32:55;2.05;;;1.85;;
64684;SDS011;51109;47.414;18.954;2023-07-29T09:35:22;1.98;;;1.73;;
64684;SDS011;51109;47.414;18.954;2023-07-29T09:37:49;1.95;;;1.75;;
64684;SDS011;51109;47.414;18.954;2023-07-29T09:40:17;3.30;;;1.92;;
64684;SDS011;51109;47.414;18.954;2023-07-29T09:45:23;2.03;;;1.92;;
64684;SDS011;51109;47.414;18.954;2023-07-29T09:47:50;2.83;;;1.75;;
64684;SDS011;51109;47.414;18.954;2023-07-29T09:50:16;2.25;;;2.00;;
64684;SDS011;51109;47.414;18.954;2023-07-29T09:52:43;1.95;;;1.80;;
64684;SDS011;51109;47.414;18.954;2023-07-29T09:55:10;1.80;;;1.65;;
64684;SDS011;51109;47.414;18.954;2023-07-29T09:57:42;1.80;;;1.70;;
64684;SDS011;51109;47.414;18.954;2023-07-29T10:00:10;2.28;;;1.92;;
64684;SDS011;51109;47.414;18.954;2023-07-29T10:02:38;2.10;;;1.90;;
64684;SDS011;51109;47.414;18.954;2023-07-29T10:05:08;1.95;;;1.75;;
64684;SDS011;51109;47.414;18.954;2023-07-29T10:07:39;2.00;;;1.80;;
64684;SDS011;51109;47.414;18.954;2023-07-29T10:10:05;1.88;;;1.70;;
64684;SDS011;51109;47.414;18.954;2023-07-29T10:12:33;2.10;;;1.90;;
64684;SDS011;51109;47.414;18.954;2023-07-29T10:15:03;1.70;;;1.60;;
64684;SDS011;51109;47.414;18.954;2023-07-29T10:17:33;1.67;;;1.58;;
64684;SDS011;51109;47.414;18.954;2023-07-29T10:20:02;1.80;;;1.60;;
64684;SDS011;51109;47.414;18.954;2023-07-29T10:22:32;1.70;;;1.60;;
64684;SDS011;51109;47.414;18.954;2023-07-29T10:25:07;1.52;;;1.42;;
64684;SDS011;51109;47.414;18.954;2023-07-29T10:27:47;1.77;;;1.67;;
64684;SDS011;51109;47.414;18.954;2023-07-29T10:30:13;2.55;;;1.73;;
64684;SDS011;51109;47.414;18.954;2023-07-29T10:32:43;1.90;;;1.70;;
64684;SDS011;51109;47.414;18.954;2023-07-29T10:35:11;1.92;;;1.73;;
64684;SDS011;51109;47.414;18.954;2023-07-29T10:37:38;2.42;;;1.70;;
64684;SDS011;51109;47.414;18.954;2023-07-29T10:40:08;1.90;;;1.70;;
64684;SDS011;51109;47.414;18.954;2023-07-29T10:42:36;1.73;;;1.55;;
64684;SDS011;51109;47.414;18.954;2023-07-29T10:45:18;1.75;;;1.65;;
64684;SDS011;51109;47.414;18.954;2023-07-29T10:47:45;2.00;;;1.90;;
64684;SDS011;51109;47.414;18.954;2023-07-29T10:50:21;1.70;;;1.60;;
64684;SDS011;51109;47.414;18.954;2023-07-29T10:52:51;2.15;;;1.80;;
64684;SDS011;51109;47.414;18.954;2023-07-29T10:58:16;1.70;;;1.60;;
64684;SDS011;51109;47.414;18.954;2023-07-29T11:00:43;2.47;;;1.90;;
64684;SDS011;51109;47.414;18.954;2023-07-29T11:03:11;4.32;;;1.60;;
64684;SDS011;51109;47.414;18.954;2023-07-29T11:05:44;1.73;;;1.63;;
64684;SDS011;51109;47.414;18.954;2023-07-29T11:11:03;1.85;;;1.65;;
64684;SDS011;51109;47.414;18.954;2023-07-29T11:13:36;1.75;;;1.65;;
64684;SDS011;51109;47.414;18.954;2023-07-29T11:16:03;1.70;;;1.60;;
64684;SDS011;51109;47.414;18.954;2023-07-29T11:18:30;2.35;;;1.40;;
64684;SDS011;51109;47.414;18.954;2023-07-29T11:20:59;2.30;;;1.80;;
64684;SDS011;51109;47.414;18.954;2023-07-29T11:23:33;1.60;;;1.50;;
64684;SDS011;51109;47.414;18.954;2023-07-29T11:26:00;1.70;;;1.60;;
64684;SDS011;51109;47.414;18.954;2023-07-29T11:28:27;1.85;;;1.70;;
64684;SDS011;51109;47.414;18.954;2023-07-29T11:30:54;1.67;;;1.52;;
64684;SDS011;51109;47.414;18.954;2023-07-29T11:33:22;1.92;;;1.60;;
64684;SDS011;51109;47.414;18.954;2023-07-29T11:35:53;1.77;;;1.67;;
64684;SDS011;51109;47.414;18.954;2023-07-29T11:38:21;2.17;;;1.98;;
64684;SDS011;51109;47.414;18.954;2023-07-29T11:40:55;1.83;;;1.73;;
64684;SDS011;51109;47.414;18.954;2023-07-29T11:43:22;1.98;;;1.73;;
64684;SDS011;51109;47.414;18.954;2023-07-29T11:45:48;1.80;;;1.55;;
64684;SDS011;51109;47.414;18.954;2023-07-29T11:48:14;2.92;;;2.30;;
64684;SDS011;51109;47.414;18.954;2023-07-29T11:50:40;1.88;;;1.77;;
64684;SDS011;51109;47.414;18.954;2023-07-29T11:53:06;1.98;;;1.50;;
64684;SDS011;51109;47.414;18.954;2023-07-29T11:55:33;1.45;;;1.35;;
64684;SDS011;51109;47.414;18.954;2023-07-29T11:57:59;2.05;;;1.83;;
64684;SDS011;51109;47.414;18.954;2023-07-29T12:00:27;2.00;;;1.80;;
64684;SDS011;51109;47.414;18.954;2023-07-29T12:02:53;2.10;;;1.90;;
64684;SDS011;51109;47.414;18.954;2023-07-29T12:05:20;1.60;;;1.50;;
64684;SDS011;51109;47.414;18.954;2023-07-29T12:07:47;1.80;;;1.70;;
64684;SDS011;51109;47.414;18.954;2023-07-29T12:10:16;2.45;;;1.48;;
64684;SDS011;51109;47.414;18.954;2023-07-29T12:12:50;1.50;;;1.33;;
64684;SDS011;51109;47.414;18.954;2023-07-29T12:15:26;1.48;;;1.38;;
64684;SDS011;51109;47.414;18.954;2023-07-29T12:17:53;1.70;;;1.60;;
64684;SDS011;51109;47.414;18.954;2023-07-29T12:20:21;2.88;;;1.75;;
64684;SDS011;51109;47.414;18.954;2023-07-29T12:22:57;1.60;;;1.50;;
64684;SDS011;51109;47.414;18.954;2023-07-29T12:25:26;1.80;;;1.50;;
64684;SDS011;51109;47.414;18.954;2023-07-29T12:27:52;1.67;;;1.58;;
64684;SDS011;51109;47.414;18.954;2023-07-29T12:30:22;1.63;;;1.52;;
64684;SDS011;51109;47.414;18.954;2023-07-29T12:32:49;2.03;;;1.83;;
64684;SDS011;51109;47.414;18.954;2023-07-29T12:35:15;1.63;;;1.48;;
64684;SDS011;51109;47.414;18.954;2023-07-29T12:37:42;1.52;;;1.42;;
64684;SDS011;51109;47.414;18.954;2023-07-29T12:40:09;1.85;;;1.40;;
64684;SDS011;51109;47.414;18.954;2023-07-29T12:42:47;1.90;;;1.75;;
64684;SDS011;51109;47.414;18.954;2023-07-29T12:45:14;2.10;;;1.50;;
64684;SDS011;51109;47.414;18.954;2023-07-29T12:47:41;2.03;;;1.70;;
64684;SDS011;51109;47.414;18.954;2023-07-29T12:50:07;1.45;;;1.35;;
64684;SDS011;51109;47.414;18.954;2023-07-29T12:52:33;2.15;;;1.38;;
64684;SDS011;51109;47.414;18.954;2023-07-29T12:54:59;1.55;;;1.45;;
64684;SDS011;51109;47.414;18.954;2023-07-29T12:57:25;1.85;;;1.73;;
64684;SDS011;51109;47.414;18.954;2023-07-29T12:59:51;1.58;;;1.48;;
64684;SDS011;51109;47.414;18.954;2023-07-29T13:02:17;2.45;;;1.60;;
64684;SDS011;51109;47.414;18.954;2023-07-29T13:04:43;1.60;;;1.50;;
64684;SDS011;51109;47.414;18.954;2023-07-29T13:07:09;1.70;;;1.60;;
64684;SDS011;51109;47.414;18.954;2023-07-29T13:09:35;1.67;;;1.58;;
64684;SDS011;51109;47.414;18.954;2023-07-29T13:12:01;3.35;;;1.67;;
64684;SDS011;51109;47.414;18.954;2023-07-29T13:14:27;1.60;;;1.50;;
64684;SDS011;51109;47.414;18.954;2023-07-29T13:16:53;1.63;;;1.52;;
64684;SDS011;51109;47.414;18.954;2023-07-29T13:19:19;1.77;;;1.65;;
64684;SDS011;51109;47.414;18.954;2023-07-29T13:21:45;1.65;;;1.55;;
64684;SDS011;51109;47.414;18.954;2023-07-29T13:24:11;1.67;;;1.58;;
64684;SDS011;51109;47.414;18.954;2023-07-29T13:26:37;1.70;;;1.38;;
64684;SDS011;51109;47.414;18.954;2023-07-29T13:29:03;1.60;;;1.50;;
64684;SDS011;51109;47.414;18.954;2023-07-29T13:31:29;1.85;;;1.52;;
64684;SDS011;51109;47.414;18.954;2023-07-29T13:33:56;3.38;;;1.50;;
64684;SDS011;51109;47.414;18.954;2023-07-29T13:36:22;1.83;;;1.65;;
64684;SDS011;51109;47.414;18.954;2023-07-29T13:38:48;1.77;;;1.67;;
64684;SDS011;51109;47.414;18.954;2023-07-29T13:41:14;2.15;;;1.95;;
64684;SDS011;51109;47.414;18.954;2023-07-29T13:43:40;1.70;;;1.58;;
64684;SDS011;51109;47.414;18.954;2023-07-29T13:46:06;1.92;;;1.52;;
64684;SDS011;51109;47.414;18.954;2023-07-29T13:48:31;1.63;;;1.52;;
64684;SDS011;51109;47.414;18.954;2023-07-29T13:50:58;2.53;;;1.90;;
64684;SDS011;51109;47.414;18.954;2023-07-29T13:53:24;1.88;;;1.77;;
64684;SDS011;51109;47.414;18.954;2023-07-29T13:55:51;1.88;;;1.70;;
64684;SDS011;51109;47.414;18.954;2023-07-29T13:58:17;1.88;;;1.58;;
64684;SDS011;51109;47.414;18.954;2023-07-29T14:00:43;2.33;;;1.65;;
64684;SDS011;51109;47.414;18.954;2023-07-29T14:03:08;2.58;;;1.70;;
64684;SDS011;51109;47.414;18.954;2023-07-29T14:05:34;1.50;;;1.40;;
64684;SDS011;51109;47.414;18.954;2023-07-29T14:08:00;2.00;;;1.80;;
64684;SDS011;51109;47.414;18.954;2023-07-29T14:10:26;2.00;;;1.60;;
64684;SDS011;51109;47.414;18.954;2023-07-29T14:12:52;1.92;;;1.83;;
64684;SDS011;51109;47.414;18.954;2023-07-29T14:15:18;1.67;;;1.58;;
64684;SDS011;51109;47.414;18.954;2023-07-29T14:17:44;2.03;;;1.67;;
64684;SDS011;51109;47.414;18.954;2023-07-29T14:20:10;2.58;;;1.77;;
64684;SDS011;51109;47.414;18.954;2023-07-29T14:22:36;3.30;;;1.90;;
64684;SDS011;51109;47.414;18.954;2023-07-29T14:25:02;2.20;;;2.00;;
64684;SDS011;51109;47.414;18.954;2023-07-29T14:27:29;2.42;;;1.50;;
64684;SDS011;51109;47.414;18.954;2023-07-29T14:29:55;2.05;;;1.70;;
64684;SDS011;51109;47.414;18.954;2023-07-29T14:32:21;1.85;;;1.70;;
64684;SDS011;51109;47.414;18.954;2023-07-29T14:34:47;1.63;;;1.52;;
64684;SDS011;51109;47.414;18.954;2023-07-29T14:37:14;2.33;;;1.70;;
64684;SDS011;51109;47.414;18.954;2023-07-29T14:39:40;2.47;;;1.63;;
64684;SDS011;51109;47.414;18.954;2023-07-29T14:42:06;2.10;;;1.90;;
64684;SDS011;51109;47.414;18.954;2023-07-29T14:44:33;3.35;;;1.83;;
64684;SDS011;51109;47.414;18.954;2023-07-29T14:46:59;2.28;;;1.67;;
64684;SDS011;51109;47.414;18.954;2023-07-29T14:49:25;2.17;;;1.70;;